Savage Better Way — WDF3773 — position and weather

sailwx.info

Track history (hours):
 
Tides and Currents Weather Stations Pressure Air Temp Water Temp Dewpoint Dewpoint Depression Visibility Wind Speed Wind Dir Waves Ship Positions

Savage Better Way

Owner: Savage Inland Marine, Gibson, LA. More information available from US FCC via Universal Licensing System and Coast Guard Vessel Documentation Center.

Last reported at 2018-Jun-17 20:29 UTC. Time now 2018-Jun-19 21:35 UTC.
Position N 32°52' W 091°07'.

Length 27 m; draft 3 m.

Type: Tug. MMSI: 367443840.

Date/timePositionNaut miles runAvg speedWind from/ knotsBaromVisibWave heightAir tempDewpointWater temp
2018-Jun-17 20:29N 32°52' W 091°07'5 5.0
2018-Jun-17 19:26N 32°47' W 091°09'7 3.1
2018-Jun-17 17:16N 32°40' W 091°07'2 4.5
2018-Jun-17 16:53N 32°40' W 091°08'2 5.9
2018-Jun-17 16:29N 32°37' W 091°09'3 5.6
2018-Jun-17 16:00N 32°35' W 091°07'3 5.1
2018-Jun-17 15:30N 32°33' W 091°06'3 5.1
2018-Jun-17 15:00N 32°30' W 091°07'3 5.5
2018-Jun-17 14:30N 32°28' W 091°06'3 5.7
2018-Jun-17 14:00N 32°26' W 091°03'3 5.4
2018-Jun-17 13:30N 32°25' W 091°00'2 4.4
2018-Jun-17 13:00N 32°23' W 090°60'2 4.1
2018-Jun-17 12:30N 32°21' W 090°59'3 5.6
2018-Jun-17 12:00N 32°21' W 090°55'2 4.0
2018-Jun-17 11:30N 32°19' W 090°55'3 5.4
2018-Jun-17 11:00N 32°17' W 090°57'2 4.8
2018-Jun-17 10:30N 32°15' W 090°59'3 5.7
2018-Jun-17 10:00N 32°12' W 090°59'3 5.1
2018-Jun-17 09:29N 32°10' W 091°00'2 4.4
2018-Jun-17 09:00N 32°08' W 091°01'2 3.6
2018-Jun-17 08:30N 32°07' W 091°03'2 4.4
2018-Jun-17 08:00N 32°08' W 091°06'2 3.9
2018-Jun-17 07:30N 32°06' W 091°06'2 1.0
2018-Jun-17 05:46N 32°05' W 091°04'0 0.0
2018-Jun-17 05:30N 32°05' W 091°04'2 3.0
2018-Jun-17 04:58N 32°04' W 091°04'3 6.2
2018-Jun-17 04:30N 32°01' W 091°05'2 3.5
2018-Jun-17 04:00N 31°60' W 091°06'3 5.4
2018-Jun-17 03:23N 31°59' W 091°10'  
2018-Jun-14 01:16N 30°03' W 090°33'9 0.5
2018-Jun-13 06:54N 29°59' W 090°24'0 0.0
2018-Jun-13 06:28N 29°59' W 090°24'0 0.0
2018-Jun-13 05:57N 29°59' W 090°24'0 0.0
2018-Jun-13 05:08N 29°59' W 090°24'0 0.0
2018-Jun-13 05:00N 29°59' W 090°24'24 0.6
2018-Jun-11 09:17N 29°35' W 090°23'2 4.7
2018-Jun-11 08:57N 29°33' W 090°24'2 5.2
2018-Jun-11 08:29N 29°33' W 090°26'3 5.4
2018-Jun-11 08:00N 29°34' W 090°29'3 5.3
2018-Jun-11 07:30N 29°34' W 090°32'3 5.1
2018-Jun-11 07:01N 29°35' W 090°35'3 5.3
2018-Jun-11 06:30N 29°35' W 090°38'2 4.8
2018-Jun-11 06:01N 29°36' W 090°41'2 3.4
2018-Jun-11 05:30N 29°36' W 090°43'2 4.1
2018-Jun-11 05:00N 29°34' W 090°43'1 2.6
2018-Jun-11 04:31N 29°34' W 090°45'2 4.0
2018-Jun-11 04:00N 29°32' W 090°46'3 6.0
2018-Jun-11 03:30N 29°32' W 090°49'3 5.8
2018-Jun-11 02:57N 29°32' W 090°53'3 6.3
2018-Jun-11 02:30N 29°34' W 090°56'48 4.1
2018-Jun-10 14:51N 29°47' W 091°49'6 4.7
2018-Jun-10 13:34N 29°51' W 091°55'1 5.3
2018-Jun-10 13:28N 29°51' W 091°55'3 4.9
2018-Jun-10 12:49N 29°50' W 091°59'2 5.4
2018-Jun-10 12:30N 29°49' W 092°01'3 5.2
2018-Jun-10 12:00N 29°49' W 092°04'3 5.0
2018-Jun-10 11:30N 29°48' W 092°06'2 5.0
2018-Jun-10 11:00N 29°47' W 092°09'2 3.7
2018-Jun-10 10:30N 29°47' W 092°11'1 2.4
2018-Jun-10 10:00N 29°47' W 092°12'1 2.1
2018-Jun-10 09:30N 29°48' W 092°14'0 0.1
2018-Jun-10 09:00N 29°48' W 092°14'1 1.2
2018-Jun-10 08:30N 29°48' W 092°14'0 0.0
2018-Jun-10 08:01N 29°48' W 092°14'0 0.0
2018-Jun-10 07:31N 29°48' W 092°14'0 0.1
2018-Jun-10 07:00N 29°48' W 092°14'0 0.1
2018-Jun-10 06:30N 29°48' W 092°14'1 1.7
2018-Jun-10 06:01N 29°48' W 092°15'1 1.2
2018-Jun-10 05:30N 29°48' W 092°16'0 0.0
2018-Jun-10 05:00N 29°48' W 092°16'0 0.0
2018-Jun-10 04:30N 29°48' W 092°16'0 0.2
2018-Jun-10 04:01N 29°48' W 092°16'2 3.7
2018-Jun-10 03:30N 29°50' W 092°18'2 4.2
2018-Jun-10 03:00N 29°50' W 092°20'3 4.3
2018-Jun-10 02:24N 29°52' W 092°22'35 4.5
2018-Jun-09 18:39N 29°56' W 093°02'1 4.2
2018-Jun-09 18:30N 29°56' W 093°03'2 3.9
2018-Jun-09 18:00N 29°56' W 093°05'2 3.9
2018-Jun-09 17:30N 29°56' W 093°07'2 3.8
2018-Jun-09 17:00N 29°56' W 093°09'2 4.1
2018-Jun-09 16:31N 29°58' W 093°11'2 4.0
2018-Jun-09 16:00N 29°59' W 093°12'3 3.4
2018-Jun-09 15:01N 30°02' W 093°15'1 2.9
2018-Jun-09 14:30N 30°03' W 093°16'2 3.5
2018-Jun-09 13:59N 30°05' W 093°17'1 2.6
2018-Jun-09 13:30N 30°05' W 093°18'0 0.9
2018-Jun-09 13:00N 30°06' W 093°18'0 0.5
2018-Jun-09 12:30N 30°06' W 093°18'0 0.2
2018-Jun-09 12:00N 30°06' W 093°18'0 0.0
2018-Jun-09 11:29N 30°06' W 093°18'0 0.1
2018-Jun-09 11:00N 30°06' W 093°18'0 0.0
2018-Jun-09 10:30N 30°06' W 093°18'0 0.0
2018-Jun-09 10:00N 30°06' W 093°18'0 0.1
2018-Jun-09 09:30N 30°06' W 093°18'0 0.0
2018-Jun-09 09:00N 30°06' W 093°18'0 0.0
2018-Jun-09 08:28N 30°06' W 093°18'0 0.0
2018-Jun-09 08:01N 30°06' W 093°18'0 0.0
2018-Jun-09 07:30N 30°06' W 093°18'0 0.0
2018-Jun-09 07:01N 30°06' W 093°18'0 0.0
2018-Jun-09 06:30N 30°06' W 093°18'0 0.0
2018-Jun-09 06:00N 30°06' W 093°18'0 0.0
2018-Jun-09 05:30N 30°06' W 093°18'0 0.1
2018-Jun-09 05:00N 30°06' W 093°18'1 2.8
2018-Jun-09 04:30N 30°05' W 093°20'2 4.6
2018-Jun-09 04:00N 30°04' W 093°21'2 4.1
2018-Jun-09 03:30N 30°04' W 093°24'1 1.0
2018-Jun-09 03:00N 30°04' W 093°24'0 0.2
2018-Jun-09 02:31N 30°04' W 093°24'0 0.1
2018-Jun-09 02:00N 30°04' W 093°24'0 0.3
2018-Jun-09 01:30N 30°04' W 093°25'0 0.1
2018-Jun-09 01:00N 30°04' W 093°25'0 0.1
2018-Jun-09 00:30N 30°04' W 093°25'0 0.3
2018-Jun-09 00:00N 30°04' W 093°25'0 0.1
2018-Jun-08 23:29N 30°04' W 093°25'0 0.0
2018-Jun-08 23:00N 30°04' W 093°25'0 0.0
2018-Jun-08 22:30N 30°04' W 093°25'1 1.0
2018-Jun-08 22:00N 30°04' W 093°26'2 4.4
2018-Jun-08 21:30N 30°04' W 093°28'3 5.1
2018-Jun-08 21:00N 30°04' W 093°31'3 5.0
2018-Jun-08 20:30N 30°04' W 093°34'3 5.8
2018-Jun-08 20:00N 30°04' W 093°37'3 6.4
2018-Jun-08 19:30N 30°03' W 093°41'3 6.1
2018-Jun-08 19:01N 30°02' W 093°44'3 6.6
2018-Jun-08 18:30N 29°60' W 093°47'3 6.9
2018-Jun-08 18:01N 29°58' W 093°50'3 5.4
2018-Jun-08 17:30N 29°56' W 093°52'4 7.1
2018-Jun-08 17:00N 29°53' W 093°55'4 7.0
2018-Jun-08 16:30N 29°51' W 093°57'2 4.6
2018-Jun-08 16:00N 29°49' W 093°59'3 5.4
2018-Jun-08 15:30N 29°47' W 094°01'3 5.7
2018-Jun-08 15:00N 29°45' W 094°04'3 5.6
2018-Jun-08 14:30N 29°44' W 094°06'3 5.6
2018-Jun-08 14:00N 29°42' W 094°09'3 5.1
2018-Jun-08 13:30N 29°41' W 094°12'3 5.3
2018-Jun-08 13:00N 29°40' W 094°14'2 4.9
2018-Jun-08 12:30N 29°39' W 094°17'3 5.0
2018-Jun-08 12:00N 29°38' W 094°19'2 4.9
2018-Jun-08 11:30N 29°36' W 094°22'2 4.1
2018-Jun-08 11:00N 29°36' W 094°24'2 4.2
2018-Jun-08 10:30N 29°34' W 094°25'2 4.5
2018-Jun-08 10:00N 29°33' W 094°28'3 5.1
2018-Jun-08 09:20N 29°31' W 094°31'2 4.8
2018-Jun-08 09:01N 29°30' W 094°32'3 5.1
2018-Jun-08 08:29N 29°29' W 094°35'3 5.4
2018-Jun-08 07:57N 29°28' W 094°38'4 5.4
2018-Jun-08 07:12N 29°26' W 094°42'1 5.5
2018-Jun-08 06:57N 29°25' W 094°43'1 2.4
2018-Jun-08 06:30N 29°25' W 094°44'2 4.7
2018-Jun-08 06:00N 29°23' W 094°46'2 3.8
2018-Jun-08 05:30N 29°22' W 094°48'3 6.6
2018-Jun-08 05:00N 29°25' W 094°50'5 6.8
2018-Jun-08 04:18N 29°30' W 094°52'2 6.8
2018-Jun-08 03:59N 29°32' W 094°53'3 6.7
2018-Jun-08 03:30N 29°34' W 094°55'3 6.7
2018-Jun-08 03:00N 29°37' W 094°57'4 7.0
2018-Jun-08 02:30N 29°40' W 094°59'3 6.4
2018-Jun-08 02:00N 29°43' W 095°01'3 5.9
2018-Jun-08 01:30N 29°45' W 095°04'  
Track history (hours):
 
Tides and Currents Weather Stations Pressure Air Temp Water Temp Dewpoint Dewpoint Depression Visibility Wind Speed Wind Dir Waves Ship Positions

Savage Better Way

Owner: Savage Inland Marine, Gibson, LA. More information available from US FCC via Universal Licensing System and Coast Guard Vessel Documentation Center.

Last reported at 2018-Jun-17 20:29 UTC. Time now 2018-Jun-19 21:35 UTC.
Position N 32°52' W 091°07'.

Length 27 m; draft 3 m.

Type: Tug. MMSI: 367443840.

Date/timePositionNaut miles runAvg speedWind from/ knotsBaromVisibWave heightAir tempDewpointWater temp
2018-Jun-17 20:29N 32°52' W 091°07'5 5.0
2018-Jun-17 19:26N 32°47' W 091°09'7 3.1
2018-Jun-17 17:16N 32°40' W 091°07'2 4.5
2018-Jun-17 16:53N 32°40' W 091°08'2 5.9
2018-Jun-17 16:29N 32°37' W 091°09'3 5.6
2018-Jun-17 16:00N 32°35' W 091°07'3 5.1
2018-Jun-17 15:30N 32°33' W 091°06'3 5.1
2018-Jun-17 15:00N 32°30' W 091°07'3 5.5
2018-Jun-17 14:30N 32°28' W 091°06'3 5.7
2018-Jun-17 14:00N 32°26' W 091°03'3 5.4
2018-Jun-17 13:30N 32°25' W 091°00'2 4.4
2018-Jun-17 13:00N 32°23' W 090°60'2 4.1
2018-Jun-17 12:30N 32°21' W 090°59'3 5.6
2018-Jun-17 12:00N 32°21' W 090°55'2 4.0
2018-Jun-17 11:30N 32°19' W 090°55'3 5.4
2018-Jun-17 11:00N 32°17' W 090°57'2 4.8
2018-Jun-17 10:30N 32°15' W 090°59'3 5.7
2018-Jun-17 10:00N 32°12' W 090°59'3 5.1
2018-Jun-17 09:29N 32°10' W 091°00'2 4.4
2018-Jun-17 09:00N 32°08' W 091°01'2 3.6
2018-Jun-17 08:30N 32°07' W 091°03'2 4.4
2018-Jun-17 08:00N 32°08' W 091°06'2 3.9
2018-Jun-17 07:30N 32°06' W 091°06'2 1.0
2018-Jun-17 05:46N 32°05' W 091°04'0 0.0
2018-Jun-17 05:30N 32°05' W 091°04'2 3.0
2018-Jun-17 04:58N 32°04' W 091°04'3 6.2
2018-Jun-17 04:30N 32°01' W 091°05'2 3.5
2018-Jun-17 04:00N 31°60' W 091°06'3 5.4
2018-Jun-17 03:23N 31°59' W 091°10'  
2018-Jun-14 01:16N 30°03' W 090°33'9 0.5
2018-Jun-13 06:54N 29°59' W 090°24'0 0.0
2018-Jun-13 06:28N 29°59' W 090°24'0 0.0
2018-Jun-13 05:57N 29°59' W 090°24'0 0.0
2018-Jun-13 05:08N 29°59' W 090°24'0 0.0
2018-Jun-13 05:00N 29°59' W 090°24'24 0.6
2018-Jun-11 09:17N 29°35' W 090°23'2 4.7
2018-Jun-11 08:57N 29°33' W 090°24'2 5.2
2018-Jun-11 08:29N 29°33' W 090°26'3 5.4
2018-Jun-11 08:00N 29°34' W 090°29'3 5.3
2018-Jun-11 07:30N 29°34' W 090°32'3 5.1
2018-Jun-11 07:01N 29°35' W 090°35'3 5.3
2018-Jun-11 06:30N 29°35' W 090°38'2 4.8
2018-Jun-11 06:01N 29°36' W 090°41'2 3.4
2018-Jun-11 05:30N 29°36' W 090°43'2 4.1
2018-Jun-11 05:00N 29°34' W 090°43'1 2.6
2018-Jun-11 04:31N 29°34' W 090°45'2 4.0
2018-Jun-11 04:00N 29°32' W 090°46'3 6.0
2018-Jun-11 03:30N 29°32' W 090°49'3 5.8
2018-Jun-11 02:57N 29°32' W 090°53'3 6.3
2018-Jun-11 02:30N 29°34' W 090°56'48 4.1
2018-Jun-10 14:51N 29°47' W 091°49'6 4.7
2018-Jun-10 13:34N 29°51' W 091°55'1 5.3
2018-Jun-10 13:28N 29°51' W 091°55'3 4.9
2018-Jun-10 12:49N 29°50' W 091°59'2 5.4
2018-Jun-10 12:30N 29°49' W 092°01'3 5.2
2018-Jun-10 12:00N 29°49' W 092°04'3 5.0
2018-Jun-10 11:30N 29°48' W 092°06'2 5.0
2018-Jun-10 11:00N 29°47' W 092°09'2 3.7
2018-Jun-10 10:30N 29°47' W 092°11'1 2.4
2018-Jun-10 10:00N 29°47' W 092°12'1 2.1
2018-Jun-10 09:30N 29°48' W 092°14'0 0.1
2018-Jun-10 09:00N 29°48' W 092°14'1 1.2
2018-Jun-10 08:30N 29°48' W 092°14'0 0.0
2018-Jun-10 08:01N 29°48' W 092°14'0 0.0
2018-Jun-10 07:31N 29°48' W 092°14'0 0.1
2018-Jun-10 07:00N 29°48' W 092°14'0 0.1
2018-Jun-10 06:30N 29°48' W 092°14'1 1.7
2018-Jun-10 06:01N 29°48' W 092°15'1 1.2
2018-Jun-10 05:30N 29°48' W 092°16'0 0.0
2018-Jun-10 05:00N 29°48' W 092°16'0 0.0
2018-Jun-10 04:30N 29°48' W 092°16'0 0.2
2018-Jun-10 04:01N 29°48' W 092°16'2 3.7
2018-Jun-10 03:30N 29°50' W 092°18'2 4.2
2018-Jun-10 03:00N 29°50' W 092°20'3 4.3
2018-Jun-10 02:24N 29°52' W 092°22'35 4.5
2018-Jun-09 18:39N 29°56' W 093°02'1 4.2
2018-Jun-09 18:30N 29°56' W 093°03'2 3.9
2018-Jun-09 18:00N 29°56' W 093°05'2 3.9
2018-Jun-09 17:30N 29°56' W 093°07'2 3.8
2018-Jun-09 17:00N 29°56' W 093°09'2 4.1
2018-Jun-09 16:31N 29°58' W 093°11'2 4.0
2018-Jun-09 16:00N 29°59' W 093°12'3 3.4
2018-Jun-09 15:01N 30°02' W 093°15'1 2.9
2018-Jun-09 14:30N 30°03' W 093°16'2 3.5
2018-Jun-09 13:59N 30°05' W 093°17'1 2.6
2018-Jun-09 13:30N 30°05' W 093°18'0 0.9
2018-Jun-09 13:00N 30°06' W 093°18'0 0.5
2018-Jun-09 12:30N 30°06' W 093°18'0 0.2
2018-Jun-09 12:00N 30°06' W 093°18'0 0.0
2018-Jun-09 11:29N 30°06' W 093°18'0 0.1
2018-Jun-09 11:00N 30°06' W 093°18'0 0.0
2018-Jun-09 10:30N 30°06' W 093°18'0 0.0
2018-Jun-09 10:00N 30°06' W 093°18'0 0.1
2018-Jun-09 09:30N 30°06' W 093°18'0 0.0
2018-Jun-09 09:00N 30°06' W 093°18'0 0.0
2018-Jun-09 08:28N 30°06' W 093°18'0 0.0
2018-Jun-09 08:01N 30°06' W 093°18'0 0.0
2018-Jun-09 07:30N 30°06' W 093°18'0 0.0
2018-Jun-09 07:01N 30°06' W 093°18'0 0.0
2018-Jun-09 06:30N 30°06' W 093°18'0 0.0
2018-Jun-09 06:00N 30°06' W 093°18'0 0.0
2018-Jun-09 05:30N 30°06' W 093°18'0 0.1
2018-Jun-09 05:00N 30°06' W 093°18'1 2.8
2018-Jun-09 04:30N 30°05' W 093°20'2 4.6
2018-Jun-09 04:00N 30°04' W 093°21'2 4.1
2018-Jun-09 03:30N 30°04' W 093°24'1 1.0
2018-Jun-09 03:00N 30°04' W 093°24'0 0.2
2018-Jun-09 02:31N 30°04' W 093°24'0 0.1
2018-Jun-09 02:00N 30°04' W 093°24'0 0.3
2018-Jun-09 01:30N 30°04' W 093°25'0 0.1
2018-Jun-09 01:00N 30°04' W 093°25'0 0.1
2018-Jun-09 00:30N 30°04' W 093°25'0 0.3
2018-Jun-09 00:00N 30°04' W 093°25'0 0.1
2018-Jun-08 23:29N 30°04' W 093°25'0 0.0
2018-Jun-08 23:00N 30°04' W 093°25'0 0.0
2018-Jun-08 22:30N 30°04' W 093°25'1 1.0
2018-Jun-08 22:00N 30°04' W 093°26'2 4.4
2018-Jun-08 21:30N 30°04' W 093°28'3 5.1
2018-Jun-08 21:00N 30°04' W 093°31'3 5.0
2018-Jun-08 20:30N 30°04' W 093°34'3 5.8
2018-Jun-08 20:00N 30°04' W 093°37'3 6.4
2018-Jun-08 19:30N 30°03' W 093°41'3 6.1
2018-Jun-08 19:01N 30°02' W 093°44'3 6.6
2018-Jun-08 18:30N 29°60' W 093°47'3 6.9
2018-Jun-08 18:01N 29°58' W 093°50'3 5.4
2018-Jun-08 17:30N 29°56' W 093°52'4 7.1
2018-Jun-08 17:00N 29°53' W 093°55'4 7.0
2018-Jun-08 16:30N 29°51' W 093°57'2 4.6
2018-Jun-08 16:00N 29°49' W 093°59'3 5.4
2018-Jun-08 15:30N 29°47' W 094°01'3 5.7
2018-Jun-08 15:00N 29°45' W 094°04'3 5.6
2018-Jun-08 14:30N 29°44' W 094°06'3 5.6
2018-Jun-08 14:00N 29°42' W 094°09'3 5.1
2018-Jun-08 13:30N 29°41' W 094°12'3 5.3
2018-Jun-08 13:00N 29°40' W 094°14'2 4.9
2018-Jun-08 12:30N 29°39' W 094°17'3 5.0
2018-Jun-08 12:00N 29°38' W 094°19'2 4.9
2018-Jun-08 11:30N 29°36' W 094°22'2 4.1
2018-Jun-08 11:00N 29°36' W 094°24'2 4.2
2018-Jun-08 10:30N 29°34' W 094°25'2 4.5
2018-Jun-08 10:00N 29°33' W 094°28'3 5.1
2018-Jun-08 09:20N 29°31' W 094°31'2 4.8
2018-Jun-08 09:01N 29°30' W 094°32'3 5.1
2018-Jun-08 08:29N 29°29' W 094°35'3 5.4
2018-Jun-08 07:57N 29°28' W 094°38'4 5.4
2018-Jun-08 07:12N 29°26' W 094°42'1 5.5
2018-Jun-08 06:57N 29°25' W 094°43'1 2.4
2018-Jun-08 06:30N 29°25' W 094°44'2 4.7
2018-Jun-08 06:00N 29°23' W 094°46'2 3.8
2018-Jun-08 05:30N 29°22' W 094°48'3 6.6
2018-Jun-08 05:00N 29°25' W 094°50'5 6.8
2018-Jun-08 04:18N 29°30' W 094°52'2 6.8
2018-Jun-08 03:59N 29°32' W 094°53'3 6.7
2018-Jun-08 03:30N 29°34' W 094°55'3 6.7
2018-Jun-08 03:00N 29°37' W 094°57'4 7.0
2018-Jun-08 02:30N 29°40' W 094°59'3 6.4
2018-Jun-08 02:00N 29°43' W 095°01'3 5.9
2018-Jun-08 01:30N 29°45' W 095°04'  

Dump ship's entire track history